createdAt,value
2023-03-04T00:00:34.474Z,102970.16
2023-03-04T00:03:03.880Z,102979.25
2023-03-04T00:05:31.868Z,102988.31
2023-03-04T00:07:59.790Z,102982.69
2023-03-04T00:10:27.862Z,102972.75
2023-03-04T00:12:55.810Z,102981.69
2023-03-04T00:15:23.876Z,102975.72
2023-03-04T00:17:51.852Z,102975.56
2023-03-04T00:20:21.406Z,102973.88
2023-03-04T00:22:49.341Z,102977.81
2023-03-04T00:25:17.834Z,102972.13
2023-03-04T00:27:45.817Z,102975.25
2023-03-04T00:30:14.163Z,102976.13
2023-03-04T00:32:43.820Z,102975.13
2023-03-04T00:35:11.975Z,102975.38
2023-03-04T00:37:41.311Z,102965.44
2023-03-04T00:40:10.484Z,102966.84
2023-03-04T00:42:38.411Z,102973.25
2023-03-04T00:45:07.864Z,102968.75
2023-03-04T00:47:35.921Z,102969.03
2023-03-04T00:50:04.501Z,102963.88
2023-03-04T00:52:32.524Z,102967.69
2023-03-04T00:55:01.848Z,102968.25
2023-03-04T00:57:29.997Z,102960.44
2023-03-04T00:59:57.968Z,102961.28
2023-03-04T01:02:26.323Z,102965.81
2023-03-04T01:04:54.417Z,102974.59
2023-03-04T01:07:23.111Z,102967.22
2023-03-04T01:09:51.078Z,102967.69
2023-03-04T01:12:21.163Z,102955.88
2023-03-04T01:14:49.200Z,102954.75
2023-03-04T01:17:17.184Z,102962.56
2023-03-04T01:19:45.443Z,102953.88
2023-03-04T01:22:15.170Z,102951.19
2023-03-04T01:24:43.911Z,102960.31
2023-03-04T01:27:12.400Z,102957.91
2023-03-04T01:29:41.707Z,102961.28
2023-03-04T01:32:09.714Z,102961.28
2023-03-04T01:34:37.724Z,102965.81
2023-03-04T01:37:05.873Z,102957.03
2023-03-04T01:39:33.820Z,102952.75
2023-03-04T01:42:01.992Z,102949.25
2023-03-04T01:44:30.067Z,102945.84
2023-03-04T01:46:59.657Z,102951.22
2023-03-04T01:49:27.708Z,102948.09
2023-03-04T01:51:56.335Z,102941.44
2023-03-04T01:54:24.396Z,102947.13
2023-03-04T01:56:53.985Z,102945.00
2023-03-04T01:59:24.185Z,102946.84
2023-03-04T02:01:55.299Z,102937.47
2023-03-04T02:04:27.400Z,102935.47
2023-03-04T02:06:57.660Z,102941.56
2023-03-04T02:09:26.136Z,102934.22
2023-03-04T02:11:54.763Z,102930.94
2023-03-04T02:14:23.613Z,102926.06
2023-03-04T02:16:52.812Z,102926.81
2023-03-04T02:19:35.365Z,102924.94
2023-03-04T02:22:03.830Z,102928.09
2023-03-04T02:24:38.091Z,102921.84
2023-03-04T02:27:07.453Z,102920.16
2023-03-04T02:29:35.910Z,102922.41
2023-03-04T02:32:05.012Z,102918.44
2023-03-04T02:34:36.511Z,102915.91
2023-03-04T02:37:05.378Z,102919.25
2023-03-04T02:39:37.005Z,102910.91
2023-03-04T02:42:07.410Z,102907.63
2023-03-04T02:44:37.571Z,102911.03
2023-03-04T02:47:07.672Z,102900.56
2023-03-04T02:49:37.896Z,102900.25
2023-03-04T02:52:08.282Z,102899.41
2023-03-04T02:54:38.378Z,102905.63
2023-03-04T02:57:10.185Z,102901.38
2023-03-04T02:59:41.956Z,102898.16
2023-03-04T03:02:13.210Z,102891.31
2023-03-04T03:04:42.273Z,102899.69
2023-03-04T03:07:13.889Z,102896.72
2023-03-04T03:09:42.670Z,102897.72
2023-03-04T03:12:12.146Z,102892.31
2023-03-04T03:14:40.149Z,102887.38
2023-03-04T03:17:10.499Z,102884.50
2023-03-04T03:19:38.503Z,102889.63
2023-03-04T03:22:08.376Z,102885.94
2023-03-04T03:24:36.613Z,102885.19
2023-03-04T03:27:04.791Z,102889.19
2023-03-04T03:29:34.516Z,102888.34
2023-03-04T03:32:02.660Z,102888.91
2023-03-04T03:34:30.656Z,102887.78
2023-03-04T03:36:58.672Z,102889.19
2023-03-04T03:39:26.654Z,102880.66
2023-03-04T03:41:54.597Z,102885.72
2023-03-04T03:44:22.580Z,102880.91
2023-03-04T03:46:51.907Z,102886.03
2023-03-04T03:49:19.900Z,102885.19
2023-03-04T03:51:47.836Z,102883.06
2023-03-04T03:54:15.947Z,102890.41
2023-03-04T03:56:43.966Z,102886.75
2023-03-04T03:59:11.876Z,102886.03
2023-03-04T04:01:39.880Z,102879.25
2023-03-04T04:04:09.964Z,102879.53
2023-03-04T04:06:37.889Z,102885.75
2023-03-04T04:09:05.875Z,102880.81
2023-03-04T04:11:33.901Z,102885.19
2023-03-04T04:14:01.854Z,102886.31
2023-03-04T04:16:29.828Z,102880.53
2023-03-04T04:18:57.937Z,102881.25
2023-03-04T04:21:27.344Z,102881.25
2023-03-04T04:23:55.323Z,102883.81
2023-03-04T04:26:23.380Z,102882.09
2023-03-04T04:28:51.384Z,102880.25
2023-03-04T04:31:19.317Z,102880.13
2023-03-04T04:33:47.228Z,102888.78
2023-03-04T04:36:16.849Z,102884.69
2023-03-04T04:38:46.294Z,102892.59
2023-03-04T04:41:20.932Z,102887.22
2023-03-04T04:43:49.365Z,102892.34
2023-03-04T04:46:17.638Z,102888.22
2023-03-04T04:48:45.865Z,102898.84
2023-03-04T04:51:14.333Z,102898.72
2023-03-04T04:53:42.676Z,102897.88
2023-03-04T04:56:14.378Z,102895.31
2023-03-04T04:58:42.745Z,102893.47
2023-03-04T05:01:11.067Z,102897.44
2023-03-04T05:03:39.575Z,102906.81
2023-03-04T05:06:10.375Z,102894.75
2023-03-04T05:08:38.386Z,102902.09
2023-03-04T05:11:07.721Z,102899.69
2023-03-04T05:13:37.171Z,102909.59
2023-03-04T05:16:06.120Z,102909.91
2023-03-04T05:18:34.138Z,102910.19
2023-03-04T05:21:03.441Z,102917.03
2023-03-04T05:23:33.844Z,102924.50
2023-03-04T05:26:02.621Z,102920.97
2023-03-04T05:28:31.083Z,102926.63
2023-03-04T05:31:00.652Z,102921.06
2023-03-04T05:33:29.033Z,102918.38
2023-03-04T05:35:57.084Z,102925.44
2023-03-04T05:38:25.658Z,102919.78
2023-03-04T05:41:22.627Z,102918.94
2023-03-04T05:43:51.058Z,102920.50
2023-03-04T05:46:25.394Z,102921.78
2023-03-04T05:48:54.108Z,102925.72
2023-03-04T05:51:22.785Z,102923.03
2023-03-04T05:53:50.731Z,102918.63
2023-03-04T05:56:21.252Z,102924.59
2023-03-04T05:58:49.176Z,102921.06
2023-03-04T06:01:17.951Z,102927.13
2023-03-04T06:03:48.577Z,102930.53
2023-03-04T06:06:16.722Z,102926.84
2023-03-04T06:09:09.507Z,102936.03
2023-03-04T06:11:37.479Z,102936.19
2023-03-04T06:14:06.759Z,102925.28
2023-03-04T06:16:34.789Z,102934.47
2023-03-04T06:19:04.192Z,102927.66
2023-03-04T06:21:32.129Z,102924.13
2023-03-04T06:24:00.056Z,102929.22
2023-03-04T06:26:28.176Z,102920.16
2023-03-04T06:28:57.121Z,102921.72
2023-03-04T06:31:25.227Z,102923.56
2023-03-04T06:33:53.303Z,102923.00
2023-03-04T06:36:22.757Z,102926.09
2023-03-04T06:38:51.102Z,102924.25
2023-03-04T06:41:19.013Z,102926.81
2023-03-04T06:43:47.049Z,102932.72
2023-03-04T06:46:15.202Z,102936.13
2023-03-04T06:50:00.735Z,102947.19
2023-03-04T06:52:30.113Z,102940.88
2023-03-04T06:54:58.045Z,102940.03
2023-03-04T06:57:25.979Z,102941.59
2023-03-04T06:59:53.919Z,102952.09
2023-03-04T07:02:21.847Z,102945.28
2023-03-04T07:04:50.025Z,102953.94
2023-03-04T07:07:17.935Z,102952.38
2023-03-04T07:09:47.287Z,102953.22
2023-03-04T07:12:15.260Z,102949.69
2023-03-04T07:14:43.140Z,102958.50
2023-03-04T07:17:11.114Z,102964.16
2023-03-04T07:19:39.129Z,102969.00
2023-03-04T07:22:07.185Z,102959.53
2023-03-04T07:24:35.110Z,102967.81
2023-03-04T07:27:04.574Z,102963.03
2023-03-04T07:29:32.699Z,102974.03
2023-03-04T07:32:00.746Z,102972.06
2023-03-04T07:34:28.796Z,102978.31
2023-03-04T07:36:56.710Z,102974.38
2023-03-04T07:39:24.803Z,102972.69
2023-03-04T07:41:53.533Z,102971.22
2023-03-04T07:44:22.842Z,102970.50
2023-03-04T07:46:50.724Z,102973.66
2023-03-04T07:49:18.617Z,102980.16
2023-03-04T07:51:46.569Z,102981.16
2023-03-04T07:54:14.508Z,102981.25
2023-03-04T07:56:42.651Z,102982.56
2023-03-04T07:59:10.600Z,102985.72
2023-03-04T08:02:28.862Z,102989.16
2023-03-04T08:04:58.190Z,102984.63
2023-03-04T08:07:26.174Z,102992.22
2023-03-04T08:09:54.130Z,102982.91
2023-03-04T08:12:22.203Z,102989.44
2023-03-04T08:14:50.139Z,102986.34
2023-03-04T08:17:18.198Z,102994.44
2023-03-04T08:19:46.242Z,102991.03
2023-03-04T08:22:15.586Z,102994.94
2023-03-04T08:24:43.528Z,102992.69
2023-03-04T08:27:11.463Z,102991.69
2023-03-04T08:29:39.611Z,102997.00
2023-03-04T08:32:07.692Z,102993.06
2023-03-04T08:34:35.785Z,102998.31
2023-03-04T08:37:03.781Z,102997.91
2023-03-04T08:39:33.407Z,102992.84
2023-03-04T08:42:01.354Z,103003.06
2023-03-04T08:44:29.370Z,103002.63
2023-03-04T08:46:57.891Z,102993.00
2023-03-04T08:49:25.841Z,102995.72
2023-03-04T08:51:53.775Z,102999.09
2023-03-04T08:54:21.730Z,102994.72
2023-03-04T08:56:51.130Z,102997.00
2023-03-04T08:59:19.125Z,102987.56
2023-03-04T09:01:47.538Z,102985.81
2023-03-04T09:04:15.506Z,102986.59
2023-03-04T09:06:43.516Z,102987.72
2023-03-04T09:09:11.668Z,102991.31
2023-03-04T09:11:39.622Z,102981.94
2023-03-04T09:14:08.933Z,102984.22
2023-03-04T09:16:36.889Z,102986.75
2023-03-04T09:19:04.867Z,102980.56
2023-03-04T09:21:32.959Z,102983.41
2023-03-04T09:24:01.019Z,102985.13
2023-03-04T09:26:30.435Z,102984.13
2023-03-04T09:29:00.886Z,102991.94
2023-03-04T09:31:31.200Z,102981.44
2023-03-04T09:34:00.902Z,102991.38
2023-03-04T09:36:29.097Z,102989.97
2023-03-04T09:39:00.510Z,102995.53
2023-03-04T09:41:37.404Z,102983.72
2023-03-04T09:44:16.013Z,102993.66
2023-03-04T09:46:48.366Z,102989.97
2023-03-04T09:49:17.763Z,102993.66
2023-03-04T09:51:52.158Z,102988.53
2023-03-04T09:54:33.478Z,102988.00
2023-03-04T09:57:19.101Z,102985.69
2023-03-04T09:59:56.689Z,102983.56
2023-03-04T10:02:35.541Z,102985.69
2023-03-04T10:05:06.783Z,102989.25
2023-03-04T10:07:37.518Z,102987.13
2023-03-04T10:10:12.203Z,102983.28
2023-03-04T10:12:44.683Z,102981.88
2023-03-04T10:15:24.228Z,102985.56
2023-03-04T10:17:58.459Z,102981.72
2023-03-04T10:20:30.069Z,102979.53
2023-03-04T10:23:01.172Z,102975.38
2023-03-04T10:25:55.026Z,102980.25
2023-03-04T10:28:26.975Z,102992.97
2023-03-04T10:31:01.011Z,102990.16
2023-03-04T10:33:32.270Z,102991.28
2023-03-04T10:36:03.734Z,102978.75
2023-03-04T10:38:33.876Z,102981.03
2023-03-04T10:41:02.454Z,102982.91
2023-03-04T10:43:31.320Z,102975.91
2023-03-04T10:46:01.219Z,102970.00
2023-03-04T10:48:32.301Z,102966.91
2023-03-04T10:51:14.514Z,102965.75
2023-03-04T10:53:44.181Z,102955.50
2023-03-04T10:56:33.722Z,102949.03
2023-03-04T10:59:31.817Z,102956.00
2023-03-04T11:02:00.435Z,102952.16
2023-03-04T11:04:35.955Z,102946.16
2023-03-04T11:07:10.628Z,102939.56
2023-03-04T11:09:40.418Z,102940.31
2023-03-04T11:12:13.098Z,102940.19
2023-03-04T11:14:45.971Z,102940.72
2023-03-04T11:17:20.676Z,102941.84
2023-03-04T11:20:17.842Z,102943.44
2023-03-04T11:22:47.121Z,102944.59
2023-03-04T11:25:24.737Z,102951.59
2023-03-04T11:27:56.781Z,102938.47
2023-03-04T11:30:34.971Z,102934.19
2023-03-04T11:33:13.010Z,102930.34
2023-03-04T11:35:50.092Z,102927.63
2023-03-04T11:38:21.185Z,102931.00
2023-03-04T11:40:53.460Z,102928.78
2023-03-04T11:43:26.079Z,102922.81
2023-03-04T11:46:37.296Z,102918.00
2023-03-04T11:49:16.477Z,102921.00
2023-03-04T11:51:53.379Z,102914.47
2023-03-04T11:54:33.550Z,102914.06
2023-03-04T11:57:08.846Z,102919.78
2023-03-04T11:59:51.836Z,102911.25
2023-03-04T12:02:21.932Z,102918.72
2023-03-04T12:05:19.578Z,102917.00
2023-03-04T12:08:26.338Z,102913.00
2023-03-04T12:11:02.796Z,102912.28
2023-03-04T12:14:10.361Z,102905.63
2023-03-04T12:16:54.564Z,102904.72
2023-03-04T12:19:34.960Z,102903.97
2023-03-04T12:22:35.638Z,102896.28
2023-03-04T12:25:18.549Z,102881.50
2023-03-04T12:27:55.887Z,102883.88
2023-03-04T12:30:41.505Z,102876.50
2023-03-04T12:33:21.758Z,102877.75
2023-03-04T12:39:30.706Z,102870.34
2023-03-04T12:42:09.958Z,102863.91
2023-03-04T12:44:47.819Z,102876.53
2023-03-04T12:47:29.052Z,102867.75
2023-03-04T12:50:01.526Z,102859.56
2023-03-04T12:52:43.398Z,102852.31
2023-03-04T12:55:18.079Z,102849.91
2023-03-04T12:57:47.664Z,102838.25
2023-03-04T13:00:27.306Z,102843.66
2023-03-04T13:03:06.604Z,102838.69
2023-03-04T13:05:51.037Z,102830.56
2023-03-04T13:08:32.173Z,102827.47
2023-03-04T13:11:03.478Z,102837.00
2023-03-04T13:13:37.135Z,102824.84
2023-03-04T13:16:07.559Z,102824.22
2023-03-04T13:18:36.713Z,102817.44
2023-03-04T13:21:20.945Z,102816.41
2023-03-04T13:23:48.975Z,102815.59
2023-03-04T13:26:23.974Z,102808.44
2023-03-04T13:29:31.799Z,102814.56
2023-03-04T13:32:02.358Z,102808.66
2023-03-04T13:34:46.083Z,102808.06
2023-03-04T13:37:35.107Z,102810.53
2023-03-04T13:40:35.729Z,102801.66
2023-03-04T13:43:29.755Z,102802.19
2023-03-04T13:45:59.131Z,102795.94
2023-03-04T13:48:36.409Z,102792.72
2023-03-04T13:51:04.922Z,102798.97
2023-03-04T13:53:42.423Z,102799.94
2023-03-04T13:56:31.586Z,102796.56
2023-03-04T13:59:21.115Z,102802.06
2023-03-04T14:02:17.238Z,102792.94
2023-03-04T14:04:47.310Z,102788.69
2023-03-04T14:07:25.026Z,102794.16
2023-03-04T14:09:59.134Z,102788.75
2023-03-04T14:12:28.770Z,102788.38
2023-03-04T14:14:58.589Z,102780.03
2023-03-04T14:17:31.708Z,102782.44
2023-03-04T14:20:00.987Z,102779.88
2023-03-04T14:22:32.021Z,102779.50
2023-03-04T14:25:00.682Z,102776.44
2023-03-04T14:27:29.754Z,102770.03
2023-03-04T14:29:59.364Z,102772.91
2023-03-04T14:32:30.406Z,102766.91
2023-03-04T14:34:59.701Z,102765.84
2023-03-04T14:37:34.179Z,102766.06
2023-03-04T14:40:05.124Z,102759.97
2023-03-04T14:42:42.510Z,102757.88
2023-03-04T14:45:16.230Z,102765.91
2023-03-04T14:47:48.514Z,102757.09
2023-03-04T14:50:19.105Z,102763.59
2023-03-04T14:52:51.724Z,102758.41
2023-03-04T14:55:23.742Z,102753.00
2023-03-04T14:57:58.432Z,102756.59
2023-03-04T15:00:31.874Z,102755.09
2023-03-04T15:03:02.733Z,102747.50
2023-03-04T15:05:32.700Z,102756.06
2023-03-04T15:08:03.538Z,102746.38
2023-03-04T15:10:33.827Z,102743.50
2023-03-04T15:13:04.091Z,102736.09
2023-03-04T15:15:43.008Z,102733.56
2023-03-04T15:18:28.427Z,102728.69
2023-03-04T15:20:59.515Z,102726.13
2023-03-04T15:23:27.438Z,102727.28
2023-03-04T15:25:57.862Z,102713.75
2023-03-04T15:28:26.290Z,102708.34
2023-03-04T15:30:54.687Z,102704.97
2023-03-04T15:33:24.684Z,102716.47
2023-03-04T15:35:56.360Z,102718.19
2023-03-04T15:38:25.057Z,102716.78
2023-03-04T15:40:54.581Z,102711.69
2023-03-04T15:43:24.309Z,102714.25
2023-03-04T15:45:54.141Z,102712.28
2023-03-04T15:48:22.549Z,102707.72
2023-03-04T15:50:57.141Z,102711.91
2023-03-04T15:53:32.742Z,102707.19
2023-03-04T15:56:01.518Z,102703.75
2023-03-04T15:58:30.260Z,102704.19
2023-03-04T16:00:58.381Z,102710.88
2023-03-04T16:03:26.454Z,102696.94
2023-03-04T16:05:55.936Z,102706.59
2023-03-04T16:08:25.408Z,102692.38
2023-03-04T16:10:54.068Z,102685.72
2023-03-04T16:13:24.881Z,102686.88
2023-03-04T16:15:53.283Z,102689.25
2023-03-04T16:18:21.594Z,102682.72
2023-03-04T16:20:51.047Z,102683.03
2023-03-04T16:23:23.375Z,102681.34
2023-03-04T16:25:54.765Z,102689.25
2023-03-04T16:28:23.513Z,102681.63
2023-03-04T16:30:51.799Z,102684.78
2023-03-04T16:33:19.851Z,102686.16
2023-03-04T16:35:48.235Z,102690.03
2023-03-04T16:38:26.004Z,102680.69
2023-03-04T16:40:55.153Z,102678.28
2023-03-04T16:43:23.751Z,102683.00
2023-03-04T16:45:51.713Z,102681.47
2023-03-04T16:48:20.339Z,102687.84
2023-03-04T16:50:48.751Z,102678.06
2023-03-04T16:53:26.409Z,102687.72
2023-03-04T16:55:54.397Z,102684.50
2023-03-04T16:58:22.549Z,102680.22
2023-03-04T17:00:50.834Z,102685.03
2023-03-04T17:03:18.937Z,102680.97
2023-03-04T17:05:47.789Z,102681.81
2023-03-04T17:08:15.877Z,102677.13
2023-03-04T17:10:45.710Z,102681.81
2023-03-04T17:13:13.826Z,102688.91
2023-03-04T17:15:42.853Z,102689.19
2023-03-04T17:18:10.910Z,102694.47
2023-03-04T17:20:39.029Z,102695.22
2023-03-04T17:23:07.250Z,102694.91
2023-03-04T17:25:35.335Z,102696.91
2023-03-04T17:28:05.088Z,102685.25
2023-03-04T17:30:33.188Z,102679.31
2023-03-04T17:33:01.182Z,102679.16
2023-03-04T17:35:29.422Z,102681.00
2023-03-04T17:37:57.422Z,102671.66
2023-03-04T17:40:25.383Z,102683.28
2023-03-04T17:42:53.702Z,102668.50
2023-03-04T17:45:23.156Z,102675.19
2023-03-04T17:47:51.252Z,102671.97
2023-03-04T17:50:21.028Z,102679.03
2023-03-04T17:52:49.013Z,102681.75
2023-03-04T17:55:17.155Z,102672.16
2023-03-04T17:57:45.235Z,102678.81
2023-03-04T18:00:14.456Z,102680.06
2023-03-04T18:02:43.855Z,102681.19
2023-03-04T18:05:12.131Z,102677.66
2023-03-04T18:07:40.156Z,102682.22
2023-03-04T18:10:09.306Z,102692.44
2023-03-04T18:12:37.329Z,102674.38
2023-03-04T18:15:06.091Z,102674.25
2023-03-04T18:17:34.231Z,102674.56
2023-03-04T18:20:03.602Z,102672.69
2023-03-04T18:22:32.276Z,102664.91
2023-03-04T18:25:00.345Z,102677.69
2023-03-04T18:27:28.541Z,102663.88
2023-03-04T18:29:56.844Z,102667.72
2023-03-04T18:32:24.935Z,102663.47
2023-03-04T18:34:53.008Z,102668.03
2023-03-04T18:37:22.434Z,102664.50
2023-03-04T18:39:50.424Z,102662.41
2023-03-04T18:42:18.422Z,102660.41
2023-03-04T18:44:46.606Z,102663.47
2023-03-04T18:47:14.726Z,102659.00
2023-03-04T18:49:45.148Z,102670.31
2023-03-04T18:52:13.652Z,102669.19
2023-03-04T18:54:43.145Z,102677.47
2023-03-04T18:57:12.420Z,102671.47
2023-03-04T18:59:44.451Z,102678.59
2023-03-04T19:02:18.498Z,102673.19
2023-03-04T19:04:46.808Z,102667.94
2023-03-04T19:07:14.886Z,102653.28
2023-03-04T19:09:44.499Z,102665.09
2023-03-04T19:12:12.985Z,102661.56
2023-03-04T19:14:41.164Z,102662.41
2023-03-04T19:17:09.223Z,102660.28
2023-03-04T19:19:37.543Z,102659.41
2023-03-04T19:22:06.888Z,102664.97
2023-03-04T19:24:34.979Z,102660.97
2023-03-04T19:27:05.406Z,102655.88
2023-03-04T19:29:33.756Z,102657.28
2023-03-04T19:32:01.781Z,102650.88
2023-03-04T19:34:30.112Z,102649.88
2023-03-04T19:36:58.195Z,102649.63
2023-03-04T19:39:26.119Z,102649.34
2023-03-04T19:41:54.187Z,102652.88
2023-03-04T19:44:24.359Z,102651.50
2023-03-04T19:46:52.552Z,102641.53
2023-03-04T19:49:20.700Z,102651.50
2023-03-04T19:51:48.756Z,102650.47
2023-03-04T19:54:17.074Z,102657.72
2023-03-04T19:56:45.212Z,102654.91
2023-03-04T19:59:13.175Z,102662.13
2023-03-04T20:01:44.739Z,102660.28
2023-03-04T20:04:14.850Z,102659.31
2023-03-04T20:06:45.009Z,102663.25
2023-03-04T20:09:14.442Z,102654.06
2023-03-04T20:11:57.234Z,102659.19
2023-03-04T20:14:27.055Z,102652.78
2023-03-04T20:17:00.700Z,102661.88
2023-03-04T20:19:28.968Z,102654.50
2023-03-04T20:21:57.878Z,102651.91
2023-03-04T20:24:26.916Z,102655.06
2023-03-04T20:26:55.669Z,102642.81
2023-03-04T20:29:23.654Z,102641.97
2023-03-04T20:31:51.705Z,102639.28
2023-03-04T20:34:21.169Z,102639.44
2023-03-04T20:36:49.341Z,102639.44
2023-03-04T20:39:32.664Z,102643.13
2023-03-04T20:42:00.816Z,102639.28
2023-03-04T20:44:29.103Z,102636.88
2023-03-04T20:46:57.464Z,102637.72
2023-03-04T20:49:29.300Z,102638.59
2023-03-04T20:52:03.197Z,102617.28
2023-03-04T20:54:31.806Z,102628.78
2023-03-04T20:57:00.075Z,102628.78
2023-03-04T20:59:29.757Z,102621.69
2023-03-04T21:01:59.374Z,102627.81
2023-03-04T21:04:29.026Z,102624.00
2023-03-04T21:06:57.130Z,102625.97
2023-03-04T21:09:26.386Z,102632.50
2023-03-04T21:11:54.952Z,102632.09
2023-03-04T21:14:26.141Z,102635.50
2023-03-04T21:16:55.201Z,102635.31
2023-03-04T21:19:24.881Z,102632.63
2023-03-04T21:21:55.316Z,102617.59
2023-03-04T21:24:25.177Z,102626.38
2023-03-04T21:26:53.518Z,102625.00
2023-03-04T21:29:24.078Z,102615.59
2023-03-04T21:31:54.846Z,102609.34
2023-03-04T21:34:25.546Z,102613.91
2023-03-04T21:36:54.941Z,102617.44
2023-03-04T21:39:24.870Z,102629.53
2023-03-04T21:41:53.525Z,102629.38
2023-03-04T21:44:28.625Z,102616.91
2023-03-04T21:47:02.798Z,102630.41
2023-03-04T21:49:31.015Z,102617.59
2023-03-04T21:52:00.408Z,102613.09
2023-03-04T21:54:28.459Z,102612.06
2023-03-04T21:56:56.449Z,102620.16
2023-03-04T21:59:24.380Z,102612.25
2023-03-04T22:01:52.461Z,102607.38
2023-03-04T22:04:20.446Z,102615.78
2023-03-04T22:06:48.498Z,102609.69
2023-03-04T22:09:17.811Z,102608.84
2023-03-04T22:11:46.346Z,102610.53
2023-03-04T22:14:14.402Z,102600.34
2023-03-04T22:16:54.457Z,102594.63
2023-03-04T22:19:23.584Z,102590.25
2023-03-04T22:21:52.411Z,102593.66
2023-03-04T22:24:22.632Z,102580.59
2023-03-04T22:26:50.698Z,102577.06
2023-03-04T22:29:18.969Z,102582.47
2023-03-04T22:31:47.407Z,102580.75
2023-03-04T22:34:16.677Z,102580.34
2023-03-04T22:36:46.491Z,102581.88
2023-03-04T22:39:17.014Z,102584.16
2023-03-04T22:41:46.486Z,102584.34
2023-03-04T22:44:14.941Z,102573.38
2023-03-04T22:46:43.677Z,102565.75
2023-03-04T22:49:14.358Z,102560.38
2023-03-04T22:51:44.210Z,102564.91
2023-03-04T22:54:13.524Z,102557.25
2023-03-04T22:56:41.700Z,102562.78
2023-03-04T22:59:11.285Z,102550.72
2023-03-04T23:01:39.489Z,102549.16
2023-03-04T23:04:07.641Z,102544.03
2023-03-04T23:06:36.351Z,102555.56
2023-03-04T23:09:05.063Z,102545.19
2023-03-04T23:11:36.246Z,102553.41
2023-03-04T23:14:07.006Z,102548.06
2023-03-04T23:16:42.285Z,102552.16
2023-03-04T23:19:13.503Z,102546.50
2023-03-04T23:21:41.858Z,102536.28
2023-03-04T23:24:11.842Z,102541.25
2023-03-04T23:26:41.448Z,102543.94
2023-03-04T23:29:12.377Z,102541.25
2023-03-04T23:31:42.685Z,102537.84
2023-03-04T23:34:11.414Z,102530.47
2023-03-04T23:36:39.979Z,102540.53
2023-03-04T23:39:10.086Z,102532.19
2023-03-04T23:41:38.885Z,102529.75
2023-03-04T23:44:08.109Z,102532.31
2023-03-04T23:46:37.659Z,102536.88
2023-03-04T23:49:07.887Z,102528.63
2023-03-04T23:51:36.500Z,102526.69
2023-03-04T23:54:04.805Z,102528.38
2023-03-04T23:56:32.886Z,102523.81
2023-03-04T23:59:01.710Z,102526.38
